Time;durP1;ratioP1;P1;durP2;ratioP2;P2;SDS_P1;SDS_P2;PMS_P1;PMS_P2;Temp;Humidity;BMP_temperature;BMP_pressure;BME280_temperature;BME280_humidity;BME280_pressure;Samples;Min_cycle;Max_cycle;Signal;HPM_P1;HPM_P2
2022/08/09 00:01:15;;;;;;;8.98;4.90;;;14.10;99.90;;;;;;5000332;28;90276;-30
2022/08/09 00:03:40;;;;;;;9.90;5.22;;;14.10;99.90;;;;;;5001247;28;90513;-33
2022/08/09 00:06:06;;;;;;;10.43;5.68;;;14.10;99.90;;;;;;5000639;28;88312;-32
2022/08/09 00:08:31;;;;;;;5.85;4.63;;;14.00;99.90;;;;;;5001339;28;90296;-31
2022/08/09 00:10:59;;;;;;;5.18;4.68;;;14.00;99.90;;;;;;5000316;28;90066;-31
2022/08/09 00:13:25;;;;;;;5.77;4.83;;;14.00;99.90;;;;;;5000355;28;90534;-35
2022/08/09 00:15:51;;;;;;;5.60;5.03;;;13.90;99.90;;;;;;5001229;28;89602;-30
2022/08/09 00:18:17;;;;;;;9.07;6.25;;;14.00;99.90;;;;;;5000081;28;90418;-33
2022/08/09 00:20:42;;;;;;;9.70;6.03;;;14.00;99.90;;;;;;5039530;22;90671;-31
2022/08/09 00:23:08;;;;;;;7.47;5.85;;;14.00;99.90;;;;;;5000253;28;89560;-29
2022/08/09 00:25:33;;;;;;;6.38;5.65;;;14.00;99.90;;;;;;5000322;28;88744;-31
2022/08/09 00:27:59;;;;;;;7.68;4.75;;;13.90;99.90;;;;;;5000879;28;90455;-31
2022/08/09 00:30:25;;;;;;;6.63;5.55;;;13.90;99.90;;;;;;4999646;28;90681;-31
2022/08/09 00:32:50;;;;;;;9.10;5.80;;;13.90;99.90;;;;;;5000744;28;90429;-30
2022/08/09 00:35:16;;;;;;;7.50;6.03;;;13.90;99.90;;;;;;5000346;28;90312;-32
2022/08/09 00:37:42;;;;;;;6.82;6.18;;;13.80;99.90;;;;;;5000438;28;90154;-31
2022/08/09 00:40:08;;;;;;;15.25;5.72;;;13.80;99.90;;;;;;5000291;28;89770;-31
2022/08/09 00:42:33;;;;;;;6.97;5.95;;;13.80;99.90;;;;;;5000178;28;89846;-31
2022/08/09 00:44:59;;;;;;;8.48;5.90;;;13.80;99.90;;;;;;5000596;28;88546;-33
2022/08/09 00:47:25;;;;;;;7.80;5.72;;;13.80;99.90;;;;;;4999936;28;90348;-34
2022/08/09 00:49:51;;;;;;;6.35;5.43;;;13.70;99.90;;;;;;4999594;28;90277;-32
2022/08/09 00:52:17;;;;;;;9.23;5.82;;;13.80;99.90;;;;;;4997847;28;90507;-33
2022/08/09 00:54:42;;;;;;;10.45;6.55;;;13.80;99.90;;;;;;4999966;28;89282;-35
2022/08/09 00:57:08;;;;;;;5.93;5.32;;;13.80;99.90;;;;;;4999064;28;90432;-29
2022/08/09 00:59:33;;;;;;;6.20;5.50;;;13.80;99.90;;;;;;5000133;28;89366;-33
2022/08/09 01:02:01;;;;;;;8.65;5.72;;;13.70;99.90;;;;;;5000002;28;89713;-35
2022/08/09 01:04:51;;;;;;;7.38;5.28;;;13.70;99.90;;;;;;4999624;28;89454;-31
2022/08/09 01:07:30;;;;;;;5.30;4.80;;;13.70;99.90;;;;;;4999780;28;90672;-32
2022/08/09 01:10:33;;;;;;;5.75;4.55;;;13.60;99.90;;;;;;5000639;28;89692;-34
2022/08/09 01:13:28;;;;;;;6.20;5.03;;;13.60;99.90;;;;;;4967564;28;89154;-34
2022/08/09 01:15:56;;;;;;;10.38;5.82;;;13.60;99.90;;;;;;4998460;28;90737;-36
2022/08/09 01:18:30;;;;;;;5.13;4.53;;;13.60;99.90;;;;;;4999742;28;90190;-33
2022/08/09 01:21:10;;;;;;;5.78;4.68;;;13.60;99.90;;;;;;4999591;28;89809;-33
2022/08/09 01:23:51;;;;;;;5.75;5.00;;;13.60;99.90;;;;;;4985913;28;89811;-32
2022/08/09 01:26:22;;;;;;;5.63;5.13;;;13.50;99.90;;;;;;5000045;28;89590;-31
2022/08/09 01:28:52;;;;;;;7.15;5.65;;;13.60;99.90;;;;;;5000382;28;90519;-31
2022/08/09 01:31:21;;;;;;;7.40;5.70;;;13.50;99.90;;;;;;4999913;28;91166;-31
2022/08/09 01:33:48;;;;;;;9.10;6.35;;;13.50;99.90;;;;;;4999702;28;89540;-31
2022/08/09 01:36:19;;;;;;;11.50;6.28;;;13.50;99.90;;;;;;4999783;28;89043;-31
2022/08/09 01:38:47;;;;;;;6.18;4.75;;;13.50;99.90;;;;;;4999650;28;90310;-31
2022/08/09 01:41:22;;;;;;;6.65;5.90;;;13.50;99.90;;;;;;4998765;28;90424;-32
2022/08/09 01:43:50;;;;;;;8.63;6.88;;;13.50;99.90;;;;;;4999581;28;90485;-31
2022/08/09 01:46:18;;;;;;;;;;;13.50;99.90;;;;;;5000087;28;88910;-30
2022/08/09 01:48:45;;;;;;;6.18;5.57;;;13.50;99.90;;;;;;5000492;28;90238;-34
2022/08/09 01:51:13;;;;;;;13.05;5.78;;;13.40;99.90;;;;;;4998784;28;89642;-32
2022/08/09 01:53:40;;;;;;;8.82;5.88;;;13.40;99.90;;;;;;4999333;28;88940;-32
2022/08/09 01:56:07;;;;;;;13.32;6.80;;;13.40;99.90;;;;;;4999490;28;88699;-33
2022/08/09 01:58:34;;;;;;;5.47;4.90;;;13.40;99.90;;;;;;4999328;28;91437;-32
2022/08/09 02:01:01;;;;;;;6.03;5.45;;;13.50;99.90;;;;;;4999644;28;89452;-30
2022/08/09 02:03:30;;;;;;;8.77;5.88;;;13.40;99.90;;;;;;4997973;28;88735;-30
2022/08/09 02:05:57;;;;;;;7.72;6.40;;;13.40;99.90;;;;;;4999126;28;89631;-36
2022/08/09 02:08:24;;;;;;;6.72;5.50;;;13.40;99.90;;;;;;4999147;28;90252;-33
2022/08/09 02:10:52;;;;;;;9.30;5.17;;;13.40;99.90;;;;;;4999324;28;90646;-30
2022/08/09 02:13:20;;;;;;;5.78;4.60;;;13.40;99.90;;;;;;4998209;28;89442;-31
2022/08/09 02:15:48;;;;;;;;;;;13.40;99.90;;;;;;4999514;28;90312;-31
2022/08/09 02:18:18;;;;;;;6.82;6.15;;;13.30;99.90;;;;;;4999838;28;90149;-31
2022/08/09 02:20:48;;;;;;;8.40;6.32;;;13.30;99.90;;;;;;4998835;28;89376;-30
2022/08/09 02:23:28;;;;;;;9.90;6.90;;;13.20;99.90;;;;;;4998748;28;89520;-36
2022/08/09 02:25:56;;;;;;;8.68;6.32;;;13.20;99.90;;;;;;4999002;28;89549;-31
2022/08/09 02:28:33;;;;;;;9.77;7.30;;;13.20;99.90;;;;;;5001285;28;90543;-35
2022/08/09 02:31:32;;;;;;;8.32;7.03;;;13.10;99.90;;;;;;5002548;28;90831;-30
2022/08/09 02:34:02;;;;;;;7.93;7.13;;;13.10;99.90;;;;;;5002240;28;90554;-34
2022/08/09 02:36:32;;;;;;;7.80;7.00;;;13.00;99.90;;;;;;5002598;28;89715;-36
2022/08/09 02:39:06;;;;;;;9.98;7.45;;;13.00;99.90;;;;;;5002333;28;90020;-34
2022/08/09 02:41:37;;;;;;;7.53;6.30;;;12.90;99.90;;;;;;5002078;28;89632;-31
2022/08/09 02:44:06;;;;;;;9.07;7.38;;;12.80;99.90;;;;;;4999717;28;90190;-33
2022/08/09 02:46:34;;;;;;;7.72;6.93;;;12.80;99.90;;;;;;4994258;28;88148;-28
2022/08/09 02:49:04;;;;;;;9.30;6.97;;;12.70;99.90;;;;;;5001842;28;90096;-30
2022/08/09 02:51:34;;;;;;;5.75;4.68;;;12.70;99.90;;;;;;5001818;28;89787;-32
2022/08/09 02:54:02;;;;;;;8.10;5.97;;;12.60;99.90;;;;;;4988286;28;89824;-31
2022/08/09 02:56:30;;;;;;;7.18;5.13;;;12.60;99.90;;;;;;5001886;28;89230;-31
2022/08/09 02:58:59;;;;;;;7.53;5.82;;;12.50;99.90;;;;;;5002014;28;90922;-29
2022/08/09 03:01:26;;;;;;;7.40;5.78;;;12.50;99.90;;;;;;5000534;28;89120;-33
2022/08/09 03:03:53;;;;;;;7.47;6.03;;;12.50;99.90;;;;;;5002543;28;89931;-32
2022/08/09 03:06:21;;;;;;;7.13;6.43;;;12.50;99.90;;;;;;5001433;28;88842;-31
2022/08/09 03:08:48;;;;;;;6.80;6.10;;;12.50;99.90;;;;;;5001469;28;90732;-34
2022/08/09 03:11:17;;;;;;;7.05;6.35;;;12.50;99.90;;;;;;5000902;28;90091;-31
2022/08/09 03:13:45;;;;;;;6.47;5.70;;;12.50;99.90;;;;;;5001802;28;89854;-29
2022/08/09 03:16:13;;;;;;;6.03;5.20;;;12.50;99.90;;;;;;5001384;28;88277;-34
2022/08/09 03:18:39;;;;;;;7.75;6.28;;;12.50;99.90;;;;;;5001764;28;90144;-31
2022/08/09 03:21:06;;;;;;;6.72;6.03;;;12.50;99.90;;;;;;5000848;28;90923;-32
2022/08/09 03:23:33;;;;;;;10.23;7.28;;;12.50;99.90;;;;;;5001438;28;90446;-35
2022/08/09 03:26:00;;;;;;;6.10;5.50;;;12.60;99.90;;;;;;5002151;28;89732;-29
2022/08/09 03:28:26;;;;;;;8.25;5.93;;;12.60;99.90;;;;;;5000478;28;91798;-32
2022/08/09 03:30:54;;;;;;;7.07;6.35;;;12.60;99.90;;;;;;5001360;28;90112;-34
2022/08/09 03:33:20;;;;;;;9.68;6.50;;;12.70;99.90;;;;;;5001859;28;88464;-30
2022/08/09 03:35:48;;;;;;;7.95;7.13;;;12.70;99.90;;;;;;5001722;28;88684;-31
2022/08/09 03:38:14;;;;;;;8.00;7.22;;;12.70;99.90;;;;;;5000397;28;90695;-34
2022/08/09 03:40:40;;;;;;;8.45;7.28;;;12.80;99.90;;;;;;5001310;28;89616;-31
2022/08/09 03:43:05;;;;;;;10.70;7.18;;;12.70;99.90;;;;;;5000937;28;90641;-30
2022/08/09 03:45:31;;;;;;;8.63;5.47;;;12.70;99.90;;;;;;5000735;28;90313;-32
2022/08/09 03:47:56;;;;;;;11.57;5.68;;;12.70;99.90;;;;;;5001032;28;90059;-32
2022/08/09 03:50:26;;;;;;;7.70;5.82;;;12.70;99.90;;;;;;5000682;28;90123;-34
2022/08/09 03:52:53;;;;;;;10.40;6.97;;;12.70;99.90;;;;;;5000563;28;90582;-30
2022/08/09 03:55:19;;;;;;;8.80;5.97;;;12.70;99.90;;;;;;5001188;28;88566;-32
2022/08/09 03:57:47;;;;;;;7.85;5.78;;;12.60;99.90;;;;;;5001290;28;89754;-33
2022/08/09 04:00:13;;;;;;;9.15;7.93;;;12.60;99.90;;;;;;5000734;28;89587;-34
2022/08/09 04:02:41;;;;;;;7.75;6.97;;;12.60;99.90;;;;;;5000844;28;89517;-34
2022/08/09 04:05:08;;;;;;;;;;;12.70;99.90;;;;;;5002065;28;89610;-34
2022/08/09 04:07:34;;;;;;;9.45;8.23;;;12.70;99.90;;;;;;5002516;28;89931;-31
2022/08/09 04:10:00;;;;;;;9.85;6.47;;;12.80;99.90;;;;;;4999960;28;90751;-29
2022/08/09 04:12:45;;;;;;;8.70;6.43;;;12.70;99.90;;;;;;4999473;28;91154;-30
2022/08/09 04:15:12;;;;;;;7.15;5.55;;;12.80;99.90;;;;;;5000616;28;89127;-32
2022/08/09 04:17:39;;;;;;;6.18;5.57;;;12.80;99.90;;;;;;5001042;28;90259;-32
2022/08/09 04:20:06;;;;;;;6.67;4.30;;;12.80;99.90;;;;;;5000151;28;90570;-32
2022/08/09 04:22:31;;;;;;;6.97;6.15;;;12.80;99.90;;;;;;5000665;28;89105;-30
2022/08/09 04:24:57;;;;;;;5.50;4.85;;;12.80;99.90;;;;;;5000660;28;88312;-30
2022/08/09 04:27:23;;;;;;;6.13;5.57;;;12.70;99.90;;;;;;5000865;28;91096;-30
2022/08/09 04:29:48;;;;;;;6.28;5.20;;;12.80;99.90;;;;;;5000253;28;89422;-30
2022/08/09 04:32:14;;;;;;;5.03;4.43;;;12.80;99.90;;;;;;5000355;28;89052;-30
2022/08/09 04:34:40;;;;;;;5.75;5.15;;;12.70;99.90;;;;;;5000368;28;90474;-30
2022/08/09 04:37:06;;;;;;;4.80;4.32;;;12.80;99.90;;;;;;4999887;28;90184;-35
2022/08/09 04:39:32;;;;;;;4.72;4.30;;;12.80;99.90;;;;;;5000712;28;89679;-31
2022/08/09 04:41:58;;;;;;;4.43;4.03;;;12.80;99.90;;;;;;5000159;28;89339;-33
2022/08/09 04:44:23;;;;;;;4.35;3.95;;;12.90;99.90;;;;;;5000278;28;89033;-35
2022/08/09 04:46:49;;;;;;;4.50;4.05;;;12.90;99.90;;;;;;5000079;28;90177;-32
2022/08/09 04:49:15;;;;;;;5.47;4.97;;;12.90;99.90;;;;;;4999285;28;88744;-36
2022/08/09 04:51:40;;;;;;;5.57;5.07;;;13.00;99.90;;;;;;4999333;28;89555;-30
2022/08/09 04:54:06;;;;;;;4.55;4.13;;;13.00;99.90;;;;;;4999955;28;89814;-32
2022/08/09 04:56:31;;;;;;;5.55;5.05;;;13.10;99.90;;;;;;4999311;28;91513;-30
2022/08/09 04:58:57;;;;;;;6.05;5.45;;;13.20;99.90;;;;;;4999402;28;91187;-30
2022/08/09 05:01:23;;;;;;;4.57;4.18;;;13.30;99.90;;;;;;5000111;28;90296;-31
2022/08/09 05:03:49;;;;;;;6.20;5.70;;;13.50;99.90;;;;;;4999989;28;89616;-29
2022/08/09 05:06:15;;;;;;;5.40;4.93;;;13.60;99.90;;;;;;4999134;28;90907;-31
2022/08/09 05:08:41;;;;;;;6.75;6.05;;;13.70;99.90;;;;;;5000165;28;89779;-29
2022/08/09 05:11:06;;;;;;;6.32;5.72;;;13.80;99.90;;;;;;4999528;28;89069;-31
2022/08/09 05:13:32;;;;;;;6.40;5.80;;;14.00;99.90;;;;;;5000012;28;88117;-30
2022/08/09 05:15:58;;;;;;;6.88;5.85;;;14.10;99.90;;;;;;5000039;28;90058;-33
2022/08/09 05:18:28;;;;;;;5.60;5.05;;;14.10;99.90;;;;;;4999046;28;89644;-33
2022/08/09 05:20:57;;;;;;;6.60;6.00;;;14.30;99.90;;;;;;4984853;28;89237;-32
2022/08/09 05:23:23;;;;;;;5.18;4.35;;;14.30;99.90;;;;;;4999002;28;90302;-36
2022/08/09 05:25:50;;;;;;;6.45;4.97;;;14.30;99.90;;;;;;5000267;28;90529;-31
2022/08/09 05:28:16;;;;;;;6.15;4.55;;;14.40;99.90;;;;;;4999158;28;89690;-31
2022/08/09 05:30:43;;;;;;;7.25;5.65;;;14.50;99.90;;;;;;4999073;28;90248;-35
2022/08/09 05:33:08;;;;;;;4.97;4.47;;;14.60;99.90;;;;;;4999833;28;88626;-34
2022/08/09 05:35:34;;;;;;;7.00;5.45;;;14.70;99.90;;;;;;4999251;28;90404;-33
2022/08/09 05:37:59;;;;;;;6.15;4.95;;;14.80;99.90;;;;;;5000014;28;89440;-31
2022/08/09 05:40:27;;;;;;;5.15;4.53;;;14.80;99.90;;;;;;4999355;28;90965;-31
2022/08/09 05:42:53;;;;;;;5.60;5.20;;;14.90;99.90;;;;;;4999416;28;89744;-31
2022/08/09 05:45:19;;;;;;;8.32;5.72;;;14.90;99.90;;;;;;4999412;28;90308;-32
2022/08/09 05:47:45;;;;;;;8.75;5.80;;;14.90;99.90;;;;;;4998509;28;92631;-31
2022/08/09 05:50:11;;;;;;;6.07;5.47;;;14.90;99.90;;;;;;4999724;28;89461;-30
2022/08/09 05:52:37;;;;;;;8.98;5.68;;;15.00;99.90;;;;;;4997675;28;90162;-31
2022/08/09 05:55:03;;;;;;;5.90;5.30;;;15.10;99.90;;;;;;4998889;28;90402;-33
2022/08/09 05:57:28;;;;;;;5.60;5.00;;;15.20;99.90;;;;;;4999184;28;90034;-32
2022/08/09 05:59:54;;;;;;;7.28;6.55;;;15.30;99.90;;;;;;4993636;28;89760;-31
2022/08/09 06:02:19;;;;;;;9.15;5.70;;;15.40;99.90;;;;;;4996091;28;88370;-32
2022/08/09 06:04:45;;;;;;;9.18;6.47;;;15.40;99.90;;;;;;4996958;28;91682;-30
2022/08/09 06:07:10;;;;;;;6.68;5.97;;;15.40;99.90;;;;;;4996274;28;89959;-31
2022/08/09 06:09:36;;;;;;;6.35;5.68;;;15.40;99.90;;;;;;4997348;28;89988;-33
2022/08/09 06:12:02;;;;;;;7.20;6.43;;;15.50;99.90;;;;;;4988243;28;89984;-31
2022/08/09 06:14:28;;;;;;;7.05;5.57;;;15.50;99.90;;;;;;4996562;28;90279;-30
2022/08/09 06:16:54;;;;;;;6.32;5.72;;;15.60;99.90;;;;;;4996697;28;89928;-31
2022/08/09 06:19:20;;;;;;;6.65;6.00;;;15.60;99.90;;;;;;4996140;28;90034;-34
2022/08/09 06:21:46;;;;;;;6.28;5.53;;;15.70;99.90;;;;;;4996860;28;88940;-30
2022/08/09 06:24:11;;;;;;;5.95;5.28;;;15.70;99.90;;;;;;4995421;28;90672;-30
2022/08/09 06:26:40;;;;;;;6.80;6.10;;;15.80;99.90;;;;;;4997025;28;90422;-31
2022/08/09 06:29:07;;;;;;;7.22;5.88;;;15.90;99.90;;;;;;4996802;28;89450;-35
2022/08/09 06:31:34;;;;;;;8.85;5.95;;;16.00;99.90;;;;;;4996444;28;88969;-32
2022/08/09 06:34:01;;;;;;;7.35;6.57;;;16.10;99.90;;;;;;4996148;28;89078;-31
2022/08/09 06:36:27;;;;;;;7.53;6.38;;;16.20;99.90;;;;;;4995283;28;91451;-33
2022/08/09 06:38:53;;;;;;;8.85;7.43;;;16.30;99.90;;;;;;4996019;28;90432;-33
2022/08/09 06:41:18;;;;;;;8.45;6.57;;;16.50;99.90;;;;;;4995609;28;88268;-32
2022/08/09 06:43:45;;;;;;;13.13;7.05;;;16.60;99.90;;;;;;4996899;28;90357;-33
2022/08/09 06:46:10;;;;;;;9.55;6.45;;;16.70;99.90;;;;;;4995290;28;89899;-33
2022/08/09 06:48:36;;;;;;;6.38;5.60;;;16.90;99.90;;;;;;4996577;28;90300;-36
2022/08/09 06:51:02;;;;;;;9.40;7.18;;;17.00;99.90;;;;;;4996318;28;88771;-34
2022/08/09 06:53:28;;;;;;;7.72;6.13;;;17.20;99.90;;;;;;4995691;28;90733;-32
2022/08/09 06:55:53;;;;;;;7.93;7.03;;;17.40;99.90;;;;;;4996859;28;90189;-34
2022/08/09 06:58:19;;;;;;;6.50;5.57;;;17.60;99.90;;;;;;4995735;28;90511;-33
2022/08/09 07:00:44;;;;;;;9.48;5.45;;;17.80;99.90;;;;;;4996182;28;89008;-30
2022/08/09 07:03:10;;;;;;;7.47;5.00;;;18.00;99.90;;;;;;4995599;28;91303;-32
2022/08/09 07:05:36;;;;;;;7.45;5.00;;;18.10;99.90;;;;;;4982029;28;90615;-30
2022/08/09 07:08:01;;;;;;;9.27;4.38;;;18.30;99.90;;;;;;4996550;28;89292;-31
2022/08/09 07:10:27;;;;;;;3.95;3.47;;;18.40;99.90;;;;;;4995209;28;87858;-32
2022/08/09 07:12:53;;;;;;;4.78;4.03;;;18.60;99.90;;;;;;4996059;28;90322;-32
2022/08/09 07:15:18;;;;;;;3.65;2.83;;;18.80;99.90;;;;;;4998630;28;90019;-33
2022/08/09 07:17:44;;;;;;;4.35;2.78;;;18.90;99.90;;;;;;4999781;28;89570;-31
2022/08/09 07:20:10;;;;;;;3.10;2.80;;;19.10;99.90;;;;;;4998650;28;88279;-33
2022/08/09 07:22:35;;;;;;;6.75;3.55;;;19.20;99.90;;;;;;4998844;28;90252;-31
2022/08/09 07:25:03;;;;;;;4.53;3.15;;;19.30;99.90;;;;;;4999266;28;90650;-31
2022/08/09 07:27:29;;;;;;;4.22;3.70;;;19.50;99.90;;;;;;4998239;28;90328;-33
2022/08/09 07:29:55;;;;;;;7.30;3.40;;;19.60;99.90;;;;;;4999924;28;88738;-32
2022/08/09 07:32:21;;;;;;;3.22;2.78;;;19.70;99.90;;;;;;4999251;28;90284;-33
2022/08/09 07:34:46;;;;;;;4.40;3.08;;;19.80;99.90;;;;;;4998736;28;89777;-32
2022/08/09 07:37:12;;;;;;;4.15;2.50;;;19.80;99.90;;;;;;4998822;28;90326;-33
2022/08/09 07:39:38;;;;;;;2.97;2.50;;;20.00;99.90;;;;;;4999061;28;88433;-33
2022/08/09 07:42:04;;;;;;;5.32;2.63;;;20.10;99.90;;;;;;4998969;28;90140;-31
2022/08/09 07:44:30;;;;;;;3.38;2.63;;;20.40;99.90;;;;;;4999408;28;89995;-31
2022/08/09 07:46:55;;;;;;;12.27;3.92;;;20.50;99.90;;;;;;4998598;28;89748;-32
2022/08/09 07:49:21;;;;;;;3.88;3.40;;;20.50;99.90;;;;;;4998105;28;89322;-30
2022/08/09 07:51:46;;;;;;;3.83;2.45;;;20.60;99.90;;;;;;4998185;28;89283;-32
2022/08/09 07:54:12;;;;;;;3.47;3.28;;;20.70;99.90;;;;;;4998840;28;90818;-32
2022/08/09 07:56:38;;;;;;;11.05;3.88;;;20.80;99.90;;;;;;4999185;28;89631;-33
2022/08/09 07:59:06;;;;;;;3.38;3.08;;;20.90;99.90;;;;;;4998640;28;88455;-34
2022/08/09 08:01:32;;;;;;;4.68;3.90;;;21.00;99.90;;;;;;4998263;28;91257;-32
2022/08/09 08:03:57;;;;;;;3.72;2.60;;;21.10;99.90;;;;;;4998304;28;89578;-32
2022/08/09 08:06:23;;;;;;;6.60;3.22;;;21.00;99.90;;;;;;4998963;28;89514;-34
2022/08/09 08:08:48;;;;;;;3.78;3.38;;;21.00;99.90;;;;;;4998879;28;89636;-31
2022/08/09 08:11:15;;;;;;;6.75;2.55;;;21.10;99.90;;;;;;4997823;28;91170;-34
2022/08/09 08:13:41;;;;;;;3.30;2.97;;;21.20;99.90;;;;;;4998256;28;90509;-32
2022/08/09 08:16:07;;;;;;;2.97;2.78;;;21.50;99.90;;;;;;4998151;28;90703;-33
2022/08/09 08:18:32;;;;;;;3.95;2.50;;;21.60;99.90;;;;;;4998427;28;89794;-35
2022/08/09 08:20:58;;;;;;;2.28;2.08;;;21.70;99.90;;;;;;4998549;28;90340;-31
2022/08/09 08:23:24;;;;;;;2.03;1.92;;;21.70;99.90;;;;;;4997785;28;90195;-31
2022/08/09 08:25:50;;;;;;;2.08;1.77;;;21.60;99.90;;;;;;4997979;28;89757;-32
2022/08/09 08:28:16;;;;;;;3.67;2.63;;;21.50;99.90;;;;;;4998488;28;89622;-30
2022/08/09 08:30:43;;;;;;;4.63;2.50;;;21.70;99.90;;;;;;4998244;28;90421;-33
2022/08/09 08:33:08;;;;;;;5.50;2.15;;;21.80;99.90;;;;;;4998233;28;90763;-34
2022/08/09 08:35:35;;;;;;;3.45;1.65;;;21.90;99.90;;;;;;4997707;28;90125;-34
2022/08/09 08:38:00;;;;;;;2.28;2.08;;;22.00;99.90;;;;;;4997802;28;90615;-33
2022/08/09 08:40:26;;;;;;;1.23;1.17;;;22.00;99.90;;;;;;4997743;28;91700;-35
2022/08/09 08:42:52;;;;;;;6.13;1.60;;;22.00;99.90;;;;;;4997572;28;89783;-30
2022/08/09 08:45:36;;;;;;;1.60;1.48;;;22.00;99.90;;;;;;4998584;28;89470;-34
2022/08/09 08:48:04;;;;;;;2.67;1.60;;;21.90;99.90;;;;;;4997662;28;88608;-33
2022/08/09 08:50:30;;;;;;;1.65;1.40;;;21.90;99.90;;;;;;4997600;28;90579;-33
2022/08/09 08:52:56;;;;;;;1.65;1.55;;;22.00;99.90;;;;;;4998172;28;89202;-34
2022/08/09 08:55:22;;;;;;;2.95;1.30;;;22.10;99.90;;;;;;4998016;28;89446;-32
2022/08/09 08:57:48;;;;;;;1.70;1.50;;;22.20;99.90;;;;;;4998181;28;87923;-33
2022/08/09 09:00:14;;;;;;;1.40;1.30;;;22.30;99.90;;;;;;4997403;28;90245;-34
2022/08/09 09:02:43;;;;;;;3.10;1.85;;;22.60;99.90;;;;;;4996992;28;90512;-32
2022/08/09 09:05:12;;;;;;;2.50;2.30;;;22.80;99.90;;;;;;4997936;28;90205;-35
2022/08/09 09:07:38;;;;;;;2.35;2.00;;;22.90;99.90;;;;;;4997733;28;88895;-32
2022/08/09 09:10:08;;;;;;;1.75;1.65;;;22.70;99.90;;;;;;4997903;28;90252;-34
2022/08/09 09:12:34;;;;;;;1.33;1.23;;;22.40;99.90;;;;;;4997591;28;89864;-32
2022/08/09 09:15:02;;;;;;;1.70;1.40;;;22.50;99.90;;;;;;4997006;28;90021;-32
2022/08/09 09:17:28;;;;;;;1.70;1.38;;;22.60;99.90;;;;;;4997358;28;88107;-33
2022/08/09 09:19:53;;;;;;;1.70;1.55;;;22.70;99.90;;;;;;4997374;28;89418;-31
2022/08/09 09:22:20;;;;;;;1.63;1.52;;;22.80;99.90;;;;;;4997351;28;90539;-31
2022/08/09 09:24:47;;;;;;;2.75;1.70;;;22.80;99.90;;;;;;4996720;28;89400;-32
2022/08/09 09:27:17;;;;;;;2.22;2.08;;;22.90;99.90;;;;;;4997271;28;90167;-32
2022/08/09 09:29:43;;;;;;;2.03;1.80;;;22.80;99.90;;;;;;4997423;28;90859;-32
2022/08/09 09:32:10;;;;;;;1.98;1.65;;;22.90;99.90;;;;;;4997099;28;90099;-32
2022/08/09 09:34:37;;;;;;;1.65;1.55;;;23.00;99.90;;;;;;4997617;28;88681;-34
2022/08/09 09:37:04;;;;;;;1.42;1.33;;;23.10;99.90;;;;;;4996660;28;89230;-31
2022/08/09 09:39:31;;;;;;;2.88;1.52;;;23.00;99.90;;;;;;4996320;28;91568;-34
2022/08/09 09:41:58;;;;;;;2.25;1.73;;;22.90;99.90;;;;;;4996746;28;89679;-31
2022/08/09 09:44:33;;;;;;;7.03;2.83;;;22.80;99.90;;;;;;4997320;28;89428;-33
2022/08/09 09:47:08;;;;;;;2.05;1.45;;;22.90;99.90;;;;;;4998057;28;88113;-30
2022/08/09 09:49:33;;;;;;;15.07;2.83;;;22.80;99.90;;;;;;4996596;28;90915;-32
2022/08/09 09:52:05;;;;;;;0.98;0.90;;;22.80;99.90;;;;;;4996208;28;91413;-34
2022/08/09 09:54:39;;;;;;;1.23;1.13;;;23.00;99.90;;;;;;4997311;28;90297;-32
2022/08/09 09:57:23;;;;;;;1.42;1.33;;;23.00;99.90;;;;;;4996754;28;89163;-32
2022/08/09 09:59:51;;;;;;;1.83;1.27;;;22.90;99.90;;;;;;4997123;28;89199;-35
2022/08/09 10:02:17;;;;;;;;;;;22.70;99.90;;;;;;4997864;28;89703;-31
2022/08/09 10:04:44;;;;;;;2.10;1.38;;;22.90;99.90;;;;;;4997505;28;88510;-34
2022/08/09 10:07:24;;;;;;;1.92;1.33;;;23.00;99.90;;;;;;4997131;28;89635;-34
2022/08/09 10:09:54;;;;;;;2.05;1.00;;;23.10;99.90;;;;;;4996665;28;90556;-32
2022/08/09 10:12:39;;;;;;;1.10;1.00;;;23.20;99.90;;;;;;4996611;28;88811;-30
2022/08/09 10:15:10;;;;;;;1.58;1.35;;;23.30;99.90;;;;;;4997019;28;89540;-32
2022/08/09 10:17:37;;;;;;;3.53;1.45;;;23.40;99.90;;;;;;4996638;28;88728;-31
2022/08/09 10:20:22;;;;;;;1.10;1.00;;;23.50;99.90;;;;;;4996469;28;90380;-33
2022/08/09 10:22:52;;;;;;;1.70;1.00;;;23.70;99.90;;;;;;4984277;28;90122;-32
2022/08/09 10:25:19;;;;;;;1.27;1.00;;;23.70;99.90;;;;;;4996399;28;91060;-34
2022/08/09 10:27:45;;;;;;;1.17;1.08;;;23.70;99.90;;;;;;4996514;28;89440;-33
2022/08/09 10:30:12;;;;;;;1.40;1.30;;;23.80;99.90;;;;;;4996892;28;90890;-32
2022/08/09 10:32:39;;;;;;;2.58;1.30;;;23.70;99.90;;;;;;4999969;28;90450;-32
2022/08/09 10:35:06;;;;;;;0.95;0.80;;;23.70;99.90;;;;;;4988161;28;89585;-31
2022/08/09 10:37:32;;;;;;;1.35;1.23;;;23.60;99.90;;;;;;4995777;28;88941;-34
2022/08/09 10:39:58;;;;;;;0.80;0.80;;;23.80;99.90;;;;;;4995920;28;90421;-34
2022/08/09 10:42:24;;;;;;;2.78;1.13;;;23.80;99.90;;;;;;4995067;28;90206;-33
2022/08/09 10:45:02;;;;;;;2.70;1.52;;;23.90;99.90;;;;;;4996175;28;90646;-31
2022/08/09 10:47:47;;;;;;;1.55;0.85;;;24.10;99.90;;;;;;4996455;28;88948;-31
2022/08/09 10:50:17;;;;;;;1.50;1.27;;;24.20;99.90;;;;;;4998773;28;90702;-34
2022/08/09 10:53:04;;;;;;;1.55;0.90;;;24.10;99.90;;;;;;4988099;28;89775;-33
2022/08/09 10:55:32;;;;;;;2.53;0.93;;;24.00;99.90;;;;;;4986670;28;89981;-32
2022/08/09 10:57:58;;;;;;;1.30;1.20;;;24.00;99.90;;;;;;5001399;28;90471;-32
2022/08/09 11:00:30;;;;;;;1.90;1.33;;;23.90;99.90;;;;;;5002536;28;89968;-31
2022/08/09 11:02:56;;;;;;;0.95;0.90;;;24.00;99.90;;;;;;5000521;28;89601;-31
2022/08/09 11:05:23;;;;;;;0.95;0.90;;;24.00;99.90;;;;;;4999456;28;89673;-32
2022/08/09 11:07:49;;;;;;;1.25;1.15;;;23.90;99.90;;;;;;5004595;28;89859;-31
2022/08/09 11:10:41;;;;;;;1.55;1.33;;;23.80;99.90;;;;;;5002187;28;90686;-34
2022/08/09 11:13:17;;;;;;;1.27;1.17;;;23.70;99.90;;;;;;5003739;28;90256;-33
2022/08/09 11:15:43;;;;;;;1.35;1.20;;;23.70;99.90;;;;;;5001052;28;88833;-33
2022/08/09 11:18:11;;;;;;;1.60;1.50;;;23.70;99.90;;;;;;5002366;28;89413;-34
2022/08/09 11:20:40;;;;;;;1.35;1.25;;;23.70;99.90;;;;;;5000023;28;90600;-33
2022/08/09 11:23:06;;;;;;;5.95;1.48;;;23.70;99.90;;;;;;4999277;28;90320;-32
2022/08/09 11:25:35;;;;;;;1.40;1.30;;;23.70;99.90;;;;;;4999017;28;90808;-34
2022/08/09 11:28:35;;;;;;;2.63;1.10;;;23.80;99.90;;;;;;5004071;28;88602;-31
2022/08/09 11:31:02;;;;;;;2.47;1.30;;;23.90;99.90;;;;;;4999848;28;90530;-35
2022/08/09 11:33:44;;;;;;;0.73;0.73;;;24.00;99.50;;;;;;4999090;28;90426;-33
2022/08/09 11:36:13;;;;;;;1.13;1.00;;;23.90;98.30;;;;;;4998414;28;90219;-31
2022/08/09 11:38:38;;;;;;;2.00;1.23;;;24.00;94.00;;;;;;4998989;28;90076;-34
2022/08/09 11:41:27;;;;;;;1.48;1.38;;;24.00;95.10;;;;;;4998624;28;90218;-34
2022/08/09 11:43:53;;;;;;;0.93;0.90;;;23.90;95.60;;;;;;4998729;28;89700;-31
2022/08/09 11:46:20;;;;;;;6.13;1.13;;;23.80;98.60;;;;;;4997107;28;90063;-32
2022/08/09 11:48:54;;;;;;;2.42;1.13;;;24.20;99.50;;;;;;4988636;28;89005;-32
2022/08/09 11:51:22;;;;;;;0.90;0.90;;;24.30;98.60;;;;;;4997644;28;90379;-32
2022/08/09 11:54:08;;;;;;;0.98;0.98;;;24.20;97.70;;;;;;5000583;28;90376;-34
2022/08/09 11:56:34;;;;;;;3.22;0.80;;;24.10;77.50;;;;;;4999800;28;89660;-34
2022/08/09 11:58:59;;;;;;;1.25;1.15;;;24.00;81.60;;;;;;4998987;28;88709;-32
2022/08/09 12:01:37;;;;;;;1.25;1.15;;;24.00;82.30;;;;;;4999657;28;90056;-32
2022/08/09 12:04:11;;;;;;;1.70;1.30;;;24.10;76.80;;;;;;5000715;28;90253;-34
2022/08/09 12:06:37;;;;;;;1.20;1.15;;;24.00;84.30;;;;;;5000635;28;91068;-32
2022/08/09 12:09:08;;;;;;;1.02;0.90;;;24.00;86.70;;;;;;4982466;28;89366;-33
2022/08/09 12:11:34;;;;;;;4.43;1.17;;;24.00;90.40;;;;;;5000070;28;90194;-32
2022/08/09 12:14:07;;;;;;;1.40;1.30;;;24.00;85.80;;;;;;5000692;28;89906;-32
2022/08/09 12:16:39;;;;;;;1.65;1.35;;;24.00;92.10;;;;;;5001146;28;89546;-33
2022/08/09 12:19:07;;;;;;;1.48;0.82;;;24.00;90.50;;;;;;5000693;28;89683;-35
2022/08/09 12:21:41;;;;;;;1.02;1.00;;;24.10;79.80;;;;;;5037936;22;90389;-31
2022/08/09 12:24:09;;;;;;;1.30;0.90;;;24.10;77.30;;;;;;5000627;28;91090;-31
2022/08/09 12:26:44;;;;;;;1.02;1.00;;;24.10;78.40;;;;;;5000697;28;90506;-33
2022/08/09 12:29:20;;;;;;;1.25;1.13;;;24.10;86.90;;;;;;5000368;28;88701;-33
2022/08/09 12:31:48;;;;;;;1.42;1.00;;;24.10;92.80;;;;;;4999973;28;90377;-31
2022/08/09 12:34:15;;;;;;;1.30;1.10;;;24.20;92.90;;;;;;5000149;28;89454;-33
2022/08/09 12:36:55;;;;;;;1.13;1.02;;;24.20;89.80;;;;;;5000522;28;89925;-32
2022/08/09 12:39:21;;;;;;;1.02;1.02;;;24.40;84.90;;;;;;5000858;28;87903;-33
2022/08/09 12:41:47;;;;;;;1.10;0.95;;;24.50;77.40;;;;;;5000265;28;90572;-34
2022/08/09 12:44:13;;;;;;;1.33;1.23;;;24.50;74.50;;;;;;5000451;28;89835;-35
2022/08/09 12:46:45;;;;;;;1.98;1.10;;;24.40;77.70;;;;;;5000642;28;89396;-33
2022/08/09 12:49:11;;;;;;;1.17;1.08;;;24.40;77.80;;;;;;5000284;28;89587;-33
2022/08/09 12:51:37;;;;;;;0.82;0.70;;;24.40;80.90;;;;;;4998767;28;90449;-30
2022/08/09 12:54:05;;;;;;;1.00;0.90;;;24.40;88.80;;;;;;5000163;28;90548;-34